Pagrindinis puslapis
METAR-TAF:

METAR-TAF

Oro uostai :

Bahreino tarptautinis oro uostas

Bahreinas, Bahreinas

platuma: 26-16N, ilguma: 050-39E, Aukštis: 2 m

Dabartinis oras

Ataskaita buvo paskelbta 31 minutes, ne 05:00 UTC
Vėjas 14 kt iš Šiaurės/Šiaurės Vakarų
Temperatūra 30°C
Drėgmė 49%
Slėgis 1007 hPa
Matomumas 10 km arba daugiau
nėra debesų žemiau 1500 m ir nėra kamuolinių lietaus debesų

METAR: OBBI 270500Z 33014KT CAVOK 30/18 Q1007 NOSIG

Laikas: 08:31 (05:31 UTC)

Prognozė

Ataskaita buvo paskelbta 6 valandos ir 31 minutes, ne 23:00 UTC
Prognozė galioja nuo 27 metu 00 UTC su 28 metu 06 UTC
Vėjas 10 kt iš Šiaurės Vakarų
Matomumas 10 km arba daugiau
nėra debesų žemiau 1500 m ir nėra kamuolinių lietaus debesų
Tikimybė 30% :
Laikinai
nuo 27 metu 06 UTC su 27 metu 15 UTC
Vėjas 15 kt iš Šiaurės/Šiaurės Vakarų su gūsio iki 25 kt

TAF: OBBI 262300Z 2700/2806 31010KT CAVOK PROB30 TEMPO 2706/2715 34015G25KT

Orai ataskaitas ir orų prognozės (METAR, TAF).

turimą stotys yra geltonos ir raudonos taškus žemėlapyje.

Perkelti pele per norėdami pamatyti stoties vardą.

Tada spustelėkite, norėdami matyti oro stebėjimo ir prognozės.

Norėdami pakeisti žemėlapį: spustelėkite ant žalios mygtukų su juodo kryžiaus žemyn,; žalią mygtuką su brūkšneliu, jei norite nutolinti; arba žalių rodyklių gretimoms žemėlapius.


METAR-TAF: